createdAt,value
2022-09-07T00:02:04.333Z,1.58
2022-09-07T00:05:07.455Z,1.08
2022-09-07T00:08:10.285Z,1.13
2022-09-07T00:11:14.143Z,1.00
2022-09-07T00:14:16.539Z,0.95
2022-09-07T00:17:20.365Z,1.05
2022-09-07T00:20:22.875Z,1.08
2022-09-07T00:23:25.204Z,1.20
2022-09-07T00:26:29.099Z,1.20
2022-09-07T00:29:31.415Z,1.27
2022-09-07T00:32:35.151Z,1.27
2022-09-07T00:35:40.411Z,1.00
2022-09-07T00:38:42.777Z,0.85
2022-09-07T00:41:45.081Z,4.88
2022-09-07T00:45:10.106Z,1.23
2022-09-07T00:48:17.305Z,1.10
2022-09-07T00:51:26.154Z,1.23
2022-09-07T00:54:30.877Z,0.95
2022-09-07T00:57:33.904Z,1.00
2022-09-07T01:00:36.531Z,1.27
2022-09-07T01:03:42.568Z,1.00
2022-09-07T01:06:44.983Z,1.55
2022-09-07T01:09:47.722Z,1.50
2022-09-07T01:12:50.093Z,0.93
2022-09-07T01:15:59.806Z,1.00
2022-09-07T01:19:26.431Z,1.85
2022-09-07T01:22:59.636Z,1.02
2022-09-07T01:26:26.932Z,1.10
2022-09-07T01:29:33.985Z,1.10
2022-09-07T01:32:58.198Z,0.98
2022-09-07T01:36:08.729Z,1.02
2022-09-07T01:39:11.751Z,1.00
2022-09-07T01:42:15.728Z,0.90
2022-09-07T01:45:22.727Z,0.80
2022-09-07T01:48:26.119Z,0.80
2022-09-07T01:51:31.629Z,1.15
2022-09-07T01:54:39.509Z,0.63
2022-09-07T01:57:43.810Z,0.80
2022-09-07T02:00:51.155Z,1.20
2022-09-07T02:03:57.135Z,1.33
2022-09-07T02:07:04.091Z,0.85
2022-09-07T02:10:09.686Z,0.75
2022-09-07T02:13:16.138Z,0.80
2022-09-07T02:16:22.561Z,0.80
2022-09-07T02:19:27.067Z,0.80
2022-09-07T02:22:32.178Z,0.77
2022-09-07T02:25:37.849Z,1.10
2022-09-07T02:28:40.377Z,0.82
2022-09-07T02:31:44.240Z,0.90
2022-09-07T02:34:46.633Z,1.30
2022-09-07T02:37:49.229Z,1.35
2022-09-07T02:40:52.330Z,1.30
2022-09-07T02:43:55.196Z,1.65
2022-09-07T02:47:26.588Z,1.40
2022-09-07T02:50:37.663Z,1.33
2022-09-07T02:53:58.195Z,1.30
2022-09-07T02:57:06.161Z,1.13
2022-09-07T03:00:11.256Z,1.10
2022-09-07T03:03:21.570Z,0.80
2022-09-07T03:06:26.701Z,1.05
2022-09-07T03:09:32.792Z,1.00
2022-09-07T03:12:40.174Z,0.88
2022-09-07T03:15:42.587Z,3.55
2022-09-07T03:18:46.343Z,3.17
2022-09-07T03:21:48.645Z,3.28
2022-09-07T03:24:51.011Z,2.58
2022-09-07T03:27:53.363Z,2.30
2022-09-07T03:30:55.760Z,0.90
2022-09-07T03:33:59.641Z,0.90
2022-09-07T03:37:01.971Z,1.30
2022-09-07T03:40:06.400Z,1.08
2022-09-07T03:43:08.924Z,1.13
2022-09-07T03:46:11.375Z,1.50
2022-09-07T03:49:15.377Z,1.15
2022-09-07T03:52:17.795Z,1.20
2022-09-07T03:55:20.357Z,1.40
2022-09-07T03:58:23.058Z,1.17
2022-09-07T04:01:27.082Z,1.52
2022-09-07T04:04:31.226Z,1.10
2022-09-07T04:07:33.567Z,1.38
2022-09-07T04:10:37.526Z,1.70
2022-09-07T04:13:40.271Z,1.70
2022-09-07T04:16:44.854Z,1.60
2022-09-07T04:19:48.640Z,1.58
2022-09-07T04:22:54.207Z,2.28
2022-09-07T04:25:56.779Z,2.45
2022-09-07T04:29:01.006Z,2.67
2022-09-07T04:32:03.439Z,2.63
2022-09-07T04:35:08.071Z,3.42
2022-09-07T04:38:13.902Z,3.30
2022-09-07T04:41:17.476Z,3.72
2022-09-07T04:44:19.917Z,5.93
2022-09-07T04:47:22.429Z,5.47
2022-09-07T04:50:27.431Z,4.72
2022-09-07T04:53:29.825Z,5.15
2022-09-07T04:56:32.828Z,4.68
2022-09-07T04:59:35.189Z,5.28
2022-09-07T05:02:38.609Z,5.05
2022-09-07T05:05:42.423Z,6.00
2022-09-07T05:08:47.787Z,6.03
2022-09-07T05:11:50.140Z,6.93
2022-09-07T05:14:52.579Z,5.75
2022-09-07T05:17:55.012Z,6.20
2022-09-07T05:21:07.720Z,5.95
2022-09-07T05:24:10.530Z,6.05
2022-09-07T05:27:12.907Z,5.60
2022-09-07T05:37:02.840Z,4.95
2022-09-07T05:40:06.537Z,5.03
2022-09-07T05:43:10.393Z,6.53
2022-09-07T05:46:13.153Z,7.25
2022-09-07T05:49:15.604Z,8.45
2022-09-07T05:52:19.427Z,10.35
2022-09-07T05:55:30.059Z,10.07
2022-09-07T05:58:33.817Z,8.68
2022-09-07T06:01:36.203Z,8.38
2022-09-07T06:04:38.605Z,7.60
2022-09-07T06:07:42.412Z,7.40
2022-09-07T06:10:45.064Z,8.80
2022-09-07T06:13:48.005Z,7.85
2022-09-07T06:16:50.425Z,10.85
2022-09-07T06:19:53.189Z,11.45
2022-09-07T06:22:57.021Z,11.60
2022-09-07T06:25:59.614Z,12.73
2022-09-07T06:29:02.611Z,13.88
2022-09-07T06:35:27.629Z,12.95
2022-09-07T06:38:32.351Z,10.88
2022-09-07T06:44:58.884Z,10.32
2022-09-07T06:48:01.420Z,10.85
2022-09-07T06:51:05.843Z,10.32
2022-09-07T06:57:32.334Z,9.70
2022-09-07T07:00:34.755Z,11.35
2022-09-07T07:03:37.397Z,10.20
2022-09-07T07:06:40.463Z,10.75
2022-09-07T07:09:44.434Z,9.68
2022-09-07T07:12:46.869Z,11.35
2022-09-07T07:15:50.623Z,9.45
2022-09-07T07:18:55.615Z,9.65
2022-09-07T07:25:21.791Z,8.38
2022-09-07T07:31:49.427Z,6.97
2022-09-07T07:34:51.946Z,8.18
2022-09-07T07:44:42.747Z,7.03
2022-09-07T07:47:49.013Z,7.20
2022-09-07T07:50:57.355Z,5.15
2022-09-07T07:54:02.240Z,5.18
2022-09-07T07:57:06.229Z,4.65
2022-09-07T08:00:09.907Z,4.63
2022-09-07T08:03:15.558Z,3.63
2022-09-07T08:06:19.662Z,3.67
2022-09-07T08:09:21.978Z,3.47
2022-09-07T08:12:29.663Z,3.85
2022-09-07T08:15:32.423Z,3.70
2022-09-07T08:18:35.583Z,3.83
2022-09-07T08:21:38.031Z,4.00
2022-09-07T08:24:40.426Z,3.67
2022-09-07T08:27:44.004Z,4.03
2022-09-07T08:30:46.285Z,2.95
2022-09-07T08:33:48.574Z,3.10
2022-09-07T08:36:50.856Z,3.22
2022-09-07T08:39:53.162Z,2.30
2022-09-07T08:43:03.895Z,2.00
2022-09-07T08:49:16.957Z,0.60
2022-09-07T08:52:22.581Z,0.60
2022-09-07T08:55:27.736Z,0.60
2022-09-07T08:58:49.039Z,0.60
2022-09-07T09:05:23.656Z,0.63
2022-09-07T09:08:36.622Z,0.52
2022-09-07T09:11:48.028Z,0.40
2022-09-07T09:15:03.579Z,0.77
2022-09-07T09:18:17.024Z,0.80
2022-09-07T09:21:19.928Z,0.88
2022-09-07T09:24:29.871Z,0.70
2022-09-07T09:27:32.184Z,0.60
2022-09-07T09:30:35.969Z,0.60
2022-09-07T09:33:38.294Z,0.50
2022-09-07T09:36:43.111Z,0.70
2022-09-07T09:39:48.080Z,0.70
2022-09-07T09:43:03.110Z,0.68
2022-09-07T09:46:17.039Z,0.60
2022-09-07T09:49:22.584Z,0.65
2022-09-07T09:52:30.391Z,0.90
2022-09-07T09:55:36.362Z,0.70
2022-09-07T10:05:50.355Z,0.70
2022-09-07T10:08:56.723Z,0.93
2022-09-07T10:12:08.228Z,0.57
2022-09-07T10:15:25.951Z,0.60
2022-09-07T10:18:34.093Z,0.70
2022-09-07T10:21:36.377Z,0.65
2022-09-07T10:24:39.805Z,0.60
2022-09-07T10:27:45.909Z,0.60
2022-09-07T10:31:11.110Z,0.70
2022-09-07T10:34:27.226Z,0.60
2022-09-07T10:37:39.347Z,0.70
2022-09-07T10:40:44.185Z,1.05
2022-09-07T10:43:49.963Z,0.63
2022-09-07T10:46:56.798Z,0.50
2022-09-07T10:53:42.131Z,0.68
2022-09-07T10:56:55.400Z,0.85
2022-09-07T11:00:08.367Z,0.70
2022-09-07T11:03:26.873Z,0.60
2022-09-07T11:06:34.359Z,0.77
2022-09-07T11:09:57.096Z,0.63
2022-09-07T11:13:01.507Z,0.63
2022-09-07T11:16:07.648Z,0.68
2022-09-07T11:22:43.030Z,0.70
2022-09-07T11:25:52.639Z,0.60
2022-09-07T11:32:21.175Z,0.70
2022-09-07T11:35:33.690Z,0.80
2022-09-07T11:38:41.864Z,0.90
2022-09-07T11:41:48.637Z,0.73
2022-09-07T11:44:53.958Z,0.65
2022-09-07T11:47:59.197Z,0.80
2022-09-07T11:51:05.376Z,1.02
2022-09-07T11:54:19.694Z,0.75
2022-09-07T11:57:38.292Z,0.70
2022-09-07T12:00:45.315Z,0.80
2022-09-07T12:04:13.236Z,0.80
2022-09-07T12:07:38.753Z,0.80
2022-09-07T12:11:14.383Z,0.80
2022-09-07T12:14:27.863Z,0.73
2022-09-07T12:17:41.542Z,0.82
2022-09-07T12:20:45.142Z,1.10
2022-09-07T12:23:48.682Z,0.90
2022-09-07T12:26:51.601Z,0.88
2022-09-07T12:30:24.012Z,0.90
2022-09-07T12:33:36.562Z,0.70
2022-09-07T12:36:49.296Z,0.98
2022-09-07T12:40:30.205Z,0.70
2022-09-07T12:43:58.377Z,0.95
2022-09-07T12:47:02.391Z,0.80
2022-09-07T12:50:23.213Z,0.80
2022-09-07T12:53:30.934Z,0.60
2022-09-07T12:56:40.639Z,0.80
2022-09-07T13:00:01.029Z,0.93
2022-09-07T13:07:13.035Z,0.50
2022-09-07T13:10:26.557Z,0.63
2022-09-07T13:17:26.443Z,1.15
2022-09-07T13:20:36.174Z,0.68
2022-09-07T13:23:45.443Z,0.68
2022-09-07T13:26:52.537Z,0.60
2022-09-07T13:29:56.435Z,0.50
2022-09-07T13:33:38.356Z,0.60
2022-09-07T13:36:45.439Z,0.50
2022-09-07T13:39:52.482Z,0.77
2022-09-07T13:42:56.081Z,0.60
2022-09-07T13:46:01.497Z,0.40
2022-09-07T13:49:10.377Z,0.43
2022-09-07T13:52:16.290Z,0.60
2022-09-07T13:55:28.039Z,0.50
2022-09-07T13:58:34.649Z,0.70
2022-09-07T14:01:43.577Z,0.70
2022-09-07T14:04:49.847Z,0.55
2022-09-07T14:07:52.675Z,0.40
2022-09-07T14:10:56.319Z,0.50
2022-09-07T14:14:19.987Z,0.57
2022-09-07T14:17:22.385Z,0.50
2022-09-07T14:20:25.014Z,0.50
2022-09-07T14:23:30.224Z,0.40
2022-09-07T14:26:34.470Z,0.63
2022-09-07T14:29:36.969Z,0.47
2022-09-07T14:32:39.587Z,0.65
2022-09-07T14:35:41.985Z,0.40
2022-09-07T14:42:10.884Z,0.40
2022-09-07T14:45:18.319Z,0.60
2022-09-07T14:48:29.235Z,0.68
2022-09-07T14:51:36.427Z,0.50
2022-09-07T14:54:39.916Z,0.50
2022-09-07T14:57:43.591Z,0.60
2022-09-07T15:00:47.052Z,0.55
2022-09-07T15:03:55.290Z,0.52
2022-09-07T15:07:01.234Z,0.50
2022-09-07T15:10:12.898Z,0.73
2022-09-07T15:13:34.080Z,0.60
2022-09-07T15:19:39.241Z,0.70
2022-09-07T15:22:42.672Z,0.50
2022-09-07T15:25:51.142Z,0.60
2022-09-07T15:29:11.786Z,0.70
2022-09-07T15:32:16.725Z,0.52
2022-09-07T15:35:20.271Z,0.60
2022-09-07T15:41:45.367Z,0.65
2022-09-07T15:44:50.289Z,0.50
2022-09-07T15:47:53.558Z,0.47
2022-09-07T15:51:02.441Z,0.30
2022-09-07T15:54:12.157Z,0.50
2022-09-07T16:00:39.362Z,0.40
2022-09-07T16:03:41.895Z,0.50
2022-09-07T16:06:44.606Z,0.40
2022-09-07T16:09:47.287Z,0.50
2022-09-07T16:13:10.876Z,0.30
2022-09-07T16:16:15.685Z,0.47
2022-09-07T16:19:20.572Z,0.40
2022-09-07T16:25:55.997Z,0.40
2022-09-07T16:28:58.614Z,0.40
2022-09-07T16:35:25.626Z,0.70
2022-09-07T16:38:45.009Z,0.60
2022-09-07T16:41:47.736Z,0.80
2022-09-07T16:44:52.820Z,0.50
2022-09-07T16:47:57.082Z,0.50
2022-09-07T16:51:02.524Z,0.63
2022-09-07T16:54:05.980Z,0.57
2022-09-07T16:57:08.541Z,0.75
2022-09-07T17:00:12.387Z,0.52
2022-09-07T17:03:16.464Z,0.50
2022-09-07T17:06:20.467Z,0.80
2022-09-07T17:09:26.683Z,0.80
2022-09-07T17:12:29.399Z,0.88
2022-09-07T17:15:32.908Z,0.60
2022-09-07T17:22:00.347Z,0.70
2022-09-07T17:25:02.777Z,0.70
2022-09-07T17:28:05.311Z,0.50
2022-09-07T17:31:08.847Z,0.45
2022-09-07T17:34:13.778Z,0.60
2022-09-07T17:37:16.149Z,0.55
2022-09-07T17:40:19.317Z,0.60
2022-09-07T17:46:44.828Z,0.50
2022-09-07T17:49:48.653Z,0.70
2022-09-07T17:52:54.033Z,0.80
2022-09-07T17:55:56.878Z,0.60
2022-09-07T18:02:22.754Z,0.90
2022-09-07T18:05:26.778Z,0.50
2022-09-07T18:08:29.668Z,0.75
2022-09-07T18:11:46.651Z,1.10
2022-09-07T18:14:50.278Z,1.00
2022-09-07T18:17:52.784Z,0.70
2022-09-07T18:20:56.531Z,0.95
2022-09-07T18:24:00.831Z,0.90
2022-09-07T18:27:23.606Z,0.75
2022-09-07T18:30:28.757Z,1.15
2022-09-07T18:33:31.505Z,0.82
2022-09-07T18:36:35.856Z,1.00
2022-09-07T18:39:40.476Z,2.92
2022-09-07T18:42:43.294Z,1.50
2022-09-07T18:45:45.956Z,2.70
2022-09-07T18:48:48.710Z,1.95
2022-09-07T18:55:15.826Z,2.30
2022-09-07T18:58:18.448Z,2.45
2022-09-07T19:01:23.078Z,1.80
2022-09-07T19:04:26.431Z,5.03
2022-09-07T19:07:50.013Z,4.38
2022-09-07T19:10:53.000Z,1.52
2022-09-07T19:13:56.614Z,2.13
2022-09-07T19:16:59.130Z,1.23
2022-09-07T19:20:01.762Z,0.90
2022-09-07T19:23:06.582Z,1.17
2022-09-07T19:26:10.804Z,1.17
2022-09-07T19:29:16.562Z,1.58
2022-09-07T19:32:20.685Z,1.10
2022-09-07T19:35:23.395Z,1.80
2022-09-07T19:38:27.408Z,2.15
2022-09-07T19:41:30.155Z,4.47
2022-09-07T19:44:33.447Z,3.78
2022-09-07T19:47:36.029Z,6.78
2022-09-07T19:50:38.449Z,6.28
2022-09-07T19:53:44.006Z,3.45
2022-09-07T19:56:46.671Z,1.90
2022-09-07T19:59:49.087Z,3.00
2022-09-07T20:02:52.499Z,2.05
2022-09-07T20:05:55.011Z,1.85
2022-09-07T20:09:00.121Z,1.67
2022-09-07T20:12:03.871Z,1.55
2022-09-07T20:15:07.552Z,1.50
2022-09-07T20:18:11.469Z,1.40
2022-09-07T20:21:17.019Z,4.03
2022-09-07T20:24:22.609Z,1.50
2022-09-07T20:27:26.320Z,2.10
2022-09-07T20:30:33.515Z,7.03
2022-09-07T20:33:36.629Z,6.15
2022-09-07T20:36:39.689Z,1.40
2022-09-07T20:39:43.751Z,2.28
2022-09-07T20:42:46.303Z,3.45
2022-09-07T20:45:48.896Z,2.88
2022-09-07T20:48:51.318Z,2.80
2022-09-07T20:51:53.674Z,1.70
2022-09-07T20:54:59.600Z,2.03
2022-09-07T20:58:02.498Z,1.45
2022-09-07T21:01:05.316Z,1.73
2022-09-07T21:04:07.642Z,1.90
2022-09-07T21:07:10.128Z,1.83
2022-09-07T21:10:15.360Z,2.20
2022-09-07T21:13:17.820Z,1.85
2022-09-07T21:16:20.138Z,1.35
2022-09-07T21:19:22.607Z,1.80
2022-09-07T21:22:24.916Z,2.72
2022-09-07T21:25:28.591Z,1.73
2022-09-07T21:28:31.243Z,1.70
2022-09-07T21:31:33.769Z,1.92
2022-09-07T21:34:36.181Z,1.63
2022-09-07T21:37:38.472Z,2.15
2022-09-07T21:40:42.107Z,2.03
2022-09-07T21:43:44.405Z,1.50
2022-09-07T21:46:46.692Z,3.35
2022-09-07T21:49:49.050Z,2.20
2022-09-07T21:52:51.324Z,1.73
2022-09-07T21:55:58.593Z,1.80
2022-09-07T21:59:01.926Z,1.90
2022-09-07T22:02:04.255Z,1.70
2022-09-07T22:05:07.041Z,2.38
2022-09-07T22:08:09.307Z,1.80
2022-09-07T22:11:14.756Z,2.10
2022-09-07T22:14:17.020Z,1.90
2022-09-07T22:17:19.371Z,3.22
2022-09-07T22:20:21.721Z,1.58
2022-09-07T22:23:24.021Z,3.08
2022-09-07T22:26:30.260Z,1.48
2022-09-07T22:29:32.448Z,2.05
2022-09-07T22:32:36.003Z,2.28
2022-09-07T22:35:38.235Z,1.70
2022-09-07T22:38:40.914Z,1.52
2022-09-07T22:41:45.993Z,1.58
2022-09-07T22:44:48.348Z,1.48
2022-09-07T22:47:52.658Z,1.25
2022-09-07T22:50:55.801Z,2.05
2022-09-07T22:53:58.087Z,1.05
2022-09-07T22:57:01.764Z,1.20
2022-09-07T23:00:05.419Z,1.30
2022-09-07T23:03:07.684Z,1.23
2022-09-07T23:06:19.349Z,1.35
2022-09-07T23:12:25.014Z,1.10
2022-09-07T23:15:27.305Z,1.15
2022-09-07T23:18:29.505Z,1.20
2022-09-07T23:21:31.707Z,1.40
2022-09-07T23:24:34.564Z,1.10
2022-09-07T23:27:38.121Z,1.20
2022-09-07T23:30:40.605Z,1.15
2022-09-07T23:33:42.851Z,1.73
2022-09-07T23:36:45.091Z,1.42
2022-09-07T23:39:47.377Z,1.23
2022-09-07T23:42:52.780Z,0.98
2022-09-07T23:45:55.263Z,1.42
2022-09-07T23:48:57.495Z,1.25
2022-09-07T23:51:59.958Z,1.50
2022-09-07T23:55:02.243Z,1.13
2022-09-07T23:58:06.146Z,1.20
